Time;durP1;ratioP1;P1;durP2;ratioP2;P2;SDS_P1;SDS_P2;PMS_P1;PMS_P2;Temp;Humidity;BMP_temperature;BMP_pressure;BME280_temperature;BME280_humidity;BME280_pressure;Samples;Min_cycle;Max_cycle;Signal;HPM_P1;HPM_P2
2023/07/03 00:01:09;;;;;;;5.50;3.90;;;13.20;99.90;13.10;100017.00;;;;4969758;28;121519;-68
2023/07/03 00:03:38;;;;;;;6.20;3.87;;;13.10;99.90;13.10;100026.00;;;;4965937;28;110538;-68
2023/07/03 00:06:04;;;;;;;5.93;4.43;;;13.10;99.90;13.10;100032.00;;;;4967383;28;92789;-69
2023/07/03 00:08:30;;;;;;;7.87;4.60;;;13.10;99.90;13.10;100036.00;;;;4971246;28;123180;-68
2023/07/03 00:11:04;;;;;;;6.60;4.80;;;13.10;99.90;13.10;100021.00;;;;4968399;28;123507;-69
2023/07/03 00:13:29;;;;;;;9.27;4.93;;;13.10;99.90;13.10;100026.00;;;;4968615;28;98660;-68
2023/07/03 00:16:03;;;;;;;8.93;5.07;;;13.10;99.90;13.10;100024.00;;;;4969972;28;99606;-69
2023/07/03 00:18:30;;;;;;;8.67;4.40;;;13.10;99.90;13.00;100022.00;;;;4965599;28;94080;-69
2023/07/03 00:20:56;;;;;;;12.10;5.23;;;13.00;99.90;13.00;100029.00;;;;4970497;28;92898;-69
2023/07/03 00:23:24;;;;;;;6.83;4.07;;;13.00;99.90;13.00;100026.00;;;;4968511;28;92745;-69
2023/07/03 00:25:51;;;;;;;9.07;5.73;;;13.00;99.90;13.00;100026.00;;;;4966104;28;94457;-68
2023/07/03 00:28:17;;;;;;;11.23;4.63;;;12.90;99.90;13.00;100025.00;;;;4967256;28;106917;-69
2023/07/03 00:30:43;;;;;;;9.20;4.33;;;13.00;99.90;12.90;100024.00;;;;4969660;28;93100;-69
2023/07/03 00:33:10;;;;;;;5.40;3.87;;;12.90;99.90;12.90;100011.00;;;;4967176;28;92905;-68
2023/07/03 00:35:36;;;;;;;17.47;6.13;;;12.90;99.90;12.90;100016.00;;;;4963820;28;94508;-69
2023/07/03 00:38:02;;;;;;;7.20;4.50;;;12.90;99.90;13.00;100015.00;;;;4966775;28;93924;-68
2023/07/03 00:40:28;;;;;;;9.53;4.60;;;12.90;99.90;13.00;100007.00;;;;4964627;28;93177;-69
2023/07/03 00:42:55;;;;;;;9.37;5.90;;;12.90;99.90;13.00;100020.00;;;;4968716;28;92877;-68
2023/07/03 00:45:21;;;;;;;10.77;5.60;;;13.00;99.90;13.10;100017.00;;;;4964333;28;94708;-68
2023/07/03 00:47:48;;;;;;;7.33;4.30;;;13.10;99.90;13.10;100021.00;;;;4968490;28;116105;-68
2023/07/03 00:50:14;;;;;;;11.40;5.80;;;12.90;99.90;13.20;100024.00;;;;4966216;28;93648;-68
2023/07/03 00:52:41;;;;;;;9.13;4.70;;;13.10;99.90;13.20;100015.00;;;;4951980;28;101942;-69
2023/07/03 00:55:10;;;;;;;6.63;4.23;;;13.20;99.90;13.30;100014.00;;;;4947026;28;93061;-68
2023/07/03 00:57:36;;;;;;;6.43;4.43;;;13.20;99.90;13.30;100015.00;;;;4970071;28;92754;-68
2023/07/03 01:00:04;;;;;;;6.63;4.33;;;13.30;99.90;13.40;100014.00;;;;4964004;28;121663;-69
2023/07/03 01:02:58;;;;;;;6.13;3.70;;;13.30;99.90;13.40;100018.00;;;;4967929;28;93161;-68
2023/07/03 01:05:32;;;;;;;6.63;4.43;;;13.40;99.90;13.50;100011.00;;;;4968633;28;93247;-69
2023/07/03 01:07:59;;;;;;;6.97;4.70;;;13.40;99.90;13.50;100012.00;;;;4968083;28;112437;-68
2023/07/03 01:10:25;;;;;;;11.43;5.33;;;13.50;99.90;13.60;100017.00;;;;4974722;28;93489;-68
2023/07/03 01:12:55;;;;;;;7.40;4.27;;;13.50;99.90;13.60;100012.00;;;;4964170;28;101964;-68
2023/07/03 01:15:30;;;;;;;11.87;4.70;;;13.50;99.90;13.60;100003.00;;;;4952522;28;100640;-68
2023/07/03 01:17:58;;;;;;;7.57;4.97;;;13.60;99.90;13.60;99994.00;;;;4953139;28;114968;-68
2023/07/03 01:20:29;;;;;;;10.50;4.80;;;13.60;99.90;13.60;99987.00;;;;4964783;28;114522;-68
2023/07/03 01:23:22;;;;;;;7.53;4.60;;;13.60;99.90;13.50;99989.00;;;;4949535;28;102066;-68
2023/07/03 01:25:50;;;;;;;5.60;3.43;;;13.50;99.90;13.50;99981.00;;;;4952160;28;97224;-69
2023/07/03 01:28:20;;;;;;;7.27;4.73;;;13.50;99.90;13.50;99979.00;;;;4952941;28;95067;-68
2023/07/03 01:30:48;;;;;;;7.53;4.33;;;13.50;99.90;13.50;99976.00;;;;4951447;28;95091;-68
2023/07/03 01:33:25;;;;;;;4.57;4.10;;;13.50;99.90;13.40;99967.00;;;;4971316;28;101377;-68
2023/07/03 01:35:54;;;;;;;6.77;3.93;;;13.40;99.90;13.40;99965.00;;;;4967827;28;93062;-68
2023/07/03 01:38:21;;;;;;;7.40;3.70;;;13.40;99.90;13.40;99972.00;;;;4947261;28;93440;-68
2023/07/03 01:40:47;;;;;;;5.73;3.90;;;13.40;99.90;13.40;99965.00;;;;4968883;28;120307;-68
2023/07/03 01:43:14;;;;;;;5.97;3.50;;;13.30;99.90;13.30;99959.00;;;;4954795;28;109317;-68
2023/07/03 01:45:43;;;;;;;6.87;4.20;;;13.30;99.90;13.30;99966.00;;;;4973060;28;107676;-68
2023/07/03 01:48:09;;;;;;;6.30;4.07;;;13.30;99.90;13.30;99961.00;;;;4953520;28;93848;-68
2023/07/03 01:50:36;;;;;;;6.40;4.33;;;13.20;99.90;13.20;99965.00;;;;4969780;28;94216;-68
2023/07/03 01:53:11;;;;;;;6.00;3.97;;;13.20;99.90;13.20;99966.00;;;;4973677;28;92733;-68
2023/07/03 01:55:54;;;;;;;6.03;3.27;;;13.10;99.90;13.10;99958.00;;;;4951468;28;98635;-68
2023/07/03 01:58:29;;;;;;;6.10;4.70;;;13.10;99.90;13.10;99963.00;;;;4938058;28;114948;-68
2023/07/03 02:01:03;;;;;;;5.77;4.40;;;13.10;99.90;13.00;99970.00;;;;4966481;28;93909;-68
2023/07/03 02:03:44;;;;;;;6.23;4.10;;;13.00;99.90;13.00;99961.00;;;;4957375;28;93015;-68
2023/07/03 02:06:20;;;;;;;5.73;4.07;;;13.00;99.90;13.00;99956.00;;;;4970632;28;101082;-68
2023/07/03 02:08:49;;;;;;;6.60;3.83;;;13.00;99.90;13.00;99953.00;;;;4962617;28;93707;-68
2023/07/03 02:11:23;;;;;;;5.83;4.03;;;13.00;99.90;13.00;99955.00;;;;4972012;28;110198;-68
2023/07/03 02:13:49;;;;;;;10.27;4.57;;;13.00;99.90;13.00;99961.00;;;;4968103;28;108617;-68
2023/07/03 02:16:15;;;;;;;11.73;5.47;;;13.00;99.90;13.10;99956.00;;;;4967000;28;93819;-68
2023/07/03 02:18:46;;;;;;;7.33;3.67;;;13.10;99.90;13.20;99957.00;;;;4971492;28;92924;-68
2023/07/03 02:21:13;;;;;;;5.10;4.03;;;13.10;99.90;13.20;99960.00;;;;4972119;28;94306;-68
2023/07/03 02:23:39;;;;;;;6.40;4.43;;;13.20;99.90;13.30;99964.00;;;;4970654;28;93167;-69
2023/07/03 02:26:05;;;;;;;7.03;4.50;;;13.30;99.90;13.40;99955.00;;;;4971004;28;102863;-68
2023/07/03 02:28:30;;;;;;;5.00;4.50;;;13.30;99.90;13.40;99960.00;;;;4970378;28;113842;-68
2023/07/03 02:30:56;;;;;;;11.13;5.17;;;13.40;99.90;13.50;99952.00;;;;4967025;28;121193;-68
2023/07/03 02:33:22;;;;;;;10.20;4.57;;;13.40;99.90;13.60;99954.00;;;;4970935;28;110457;-68
2023/07/03 02:35:47;;;;;;;7.93;4.37;;;13.50;99.90;13.60;99947.00;;;;4968180;28;107903;-69
2023/07/03 02:38:15;;;;;;;5.67;4.10;;;13.60;99.90;13.70;99949.00;;;;4973907;28;94507;-69
2023/07/03 02:40:41;;;;;;;6.83;4.27;;;13.70;99.90;13.80;99945.00;;;;4954970;28;93880;-68
2023/07/03 02:43:08;;;;;;;5.03;3.80;;;13.70;99.90;13.90;99947.00;;;;4968821;28;93096;-68
2023/07/03 02:45:40;;;;;;;4.27;3.87;;;13.80;99.90;14.00;99942.00;;;;4969828;28;92975;-68
2023/07/03 02:48:08;;;;;;;9.23;5.40;;;13.90;99.90;14.00;99941.00;;;;4969863;28;92940;-69
2023/07/03 02:50:34;;;;;;;6.00;3.47;;;13.90;99.90;14.10;99933.00;;;;4968649;28;94352;-68
2023/07/03 02:53:00;;;;;;;7.30;4.63;;;14.00;99.90;14.10;99927.00;;;;4972224;28;93760;-68
2023/07/03 02:55:25;;;;;;;5.77;4.37;;;14.00;99.90;14.20;99928.00;;;;4967351;28;108374;-68
2023/07/03 02:57:51;;;;;;;7.17;4.77;;;14.10;99.90;14.20;99927.00;;;;4971964;28;93201;-68
2023/07/03 03:00:17;;;;;;;4.53;3.53;;;14.10;99.90;14.30;99924.00;;;;4967530;28;92914;-68
2023/07/03 03:02:44;;;;;;;6.77;4.40;;;14.20;99.90;14.30;99924.00;;;;4968416;28;110742;-68
2023/07/03 03:05:11;;;;;;;5.60;4.75;;;14.20;99.90;14.40;99930.00;;;;4953415;28;93974;-68
2023/07/03 03:07:36;;;;;;;5.93;4.60;;;14.30;99.90;14.50;99933.00;;;;4973167;28;93231;-68
2023/07/03 03:10:03;;;;;;;5.55;4.72;;;14.30;99.90;14.50;99930.00;;;;4965525;28;121281;-68
2023/07/03 03:12:29;;;;;;;4.10;3.70;;;14.40;99.90;14.50;99924.00;;;;4971128;28;93296;-68
2023/07/03 03:14:54;;;;;;;13.20;4.40;;;14.40;99.90;14.60;99931.00;;;;4969283;28;109640;-68
2023/07/03 03:17:20;;;;;;;5.50;4.35;;;14.50;99.90;14.60;99931.00;;;;4969517;28;93852;-68
2023/07/03 03:19:46;;;;;;;10.98;4.65;;;14.60;99.90;14.70;99927.00;;;;4965433;28;122740;-68
2023/07/03 03:22:11;;;;;;;5.22;3.80;;;14.70;99.90;14.70;99921.00;;;;4971815;28;111793;-68
2023/07/03 03:24:40;;;;;;;7.97;3.85;;;14.60;99.90;14.70;99923.00;;;;4965636;28;109894;-69
2023/07/03 03:27:06;;;;;;;7.80;4.88;;;14.70;99.90;14.80;99921.00;;;;4967503;28;118214;-68
2023/07/03 03:29:38;;;;;;;6.55;4.35;;;14.70;99.90;14.80;99922.00;;;;4956998;28;93978;-69
2023/07/03 03:32:05;;;;;;;9.82;4.68;;;14.70;99.90;14.80;99917.00;;;;4931449;28;108680;-68
2023/07/03 03:34:34;;;;;;;5.78;4.20;;;14.80;99.90;14.90;99907.00;;;;4967623;28;93136;-68
2023/07/03 03:37:00;;;;;;;7.80;3.80;;;14.80;99.90;14.90;99912.00;;;;4953762;28;94182;-68
2023/07/03 03:39:28;;;;;;;7.13;3.25;;;14.80;99.90;15.00;99910.00;;;;4950333;28;103862;-68
2023/07/03 03:41:54;;;;;;;7.03;4.47;;;14.90;99.90;15.00;99911.00;;;;4970908;28;109287;-68
2023/07/03 03:44:20;;;;;;;9.73;5.70;;;14.90;99.90;15.00;99912.00;;;;4965502;28;109117;-68
2023/07/03 03:46:45;;;;;;;7.00;4.38;;;14.90;99.90;15.00;99916.00;;;;4966488;28;121582;-68
2023/07/03 03:49:23;;;;;;;6.97;3.88;;;15.00;99.90;15.00;99912.00;;;;4968501;28;111451;-68
2023/07/03 03:51:49;;;;;;;5.50;4.60;;;15.00;99.90;15.10;99919.00;;;;4970187;28;99261;-68
2023/07/03 03:54:15;;;;;;;8.65;5.32;;;15.00;99.90;15.20;99918.00;;;;4968983;28;103435;-68
2023/07/03 03:56:40;;;;;;;7.70;3.70;;;15.10;99.90;15.20;99920.00;;;;4967273;28;122096;-68
2023/07/03 03:59:06;;;;;;;4.63;3.90;;;15.10;99.90;15.20;99925.00;;;;4969551;28;120951;-68
2023/07/03 04:01:34;;;;;;;9.82;4.15;;;15.10;99.90;15.30;99920.00;;;;4968937;28;92792;-68
2023/07/03 04:04:00;;;;;;;10.27;4.60;;;15.20;99.90;15.30;99913.00;;;;4971265;28;93393;-68
2023/07/03 04:06:26;;;;;;;9.95;4.57;;;15.20;99.90;15.40;99901.00;;;;4971332;28;98101;-68
2023/07/03 04:08:52;;;;;;;6.75;4.07;;;15.30;99.90;15.40;99908.00;;;;4967339;28;102164;-68
2023/07/03 04:11:18;;;;;;;7.53;3.83;;;15.30;99.90;15.40;99903.00;;;;4965773;28;109826;-68
2023/07/03 04:13:44;;;;;;;4.57;4.15;;;15.30;99.90;15.50;99909.00;;;;4966488;28;108941;-68
2023/07/03 04:16:10;;;;;;;6.82;4.25;;;15.30;99.90;15.50;99909.00;;;;4965971;28;94110;-68
2023/07/03 04:18:37;;;;;;;4.55;3.40;;;15.40;99.90;15.60;99915.00;;;;4947177;28;94230;-68
2023/07/03 04:21:02;;;;;;;6.65;4.90;;;15.50;99.90;15.60;99907.00;;;;4968772;28;92833;-68
2023/07/03 04:23:29;;;;;;;11.93;4.75;;;15.50;99.90;15.60;99914.00;;;;4965946;28;99518;-68
2023/07/03 04:25:55;;;;;;;7.47;4.22;;;15.50;99.90;15.70;99909.00;;;;4969549;28;93658;-68
2023/07/03 04:28:22;;;;;;;5.18;3.97;;;15.60;99.90;15.80;99917.00;;;;4967716;28;123682;-68
2023/07/03 04:30:48;;;;;;;4.57;3.47;;;15.60;99.90;15.80;99913.00;;;;4969502;28;93208;-68
2023/07/03 04:33:15;;;;;;;6.18;4.82;;;15.70;99.90;15.90;99920.00;;;;4968608;28;93128;-68
2023/07/03 04:35:41;;;;;;;6.65;4.38;;;15.70;99.90;15.90;99917.00;;;;4948066;28;92422;-68
2023/07/03 04:38:07;;;;;;;8.70;4.78;;;15.80;99.90;16.00;99923.00;;;;4952758;28;94285;-67
2023/07/03 04:40:33;;;;;;;4.65;3.47;;;15.90;99.90;16.10;99922.00;;;;4952647;28;93428;-68
2023/07/03 04:42:59;;;;;;;8.50;4.20;;;15.90;99.90;16.10;99925.00;;;;4970885;28;98885;-69
2023/07/03 04:45:26;;;;;;;6.82;4.70;;;16.00;99.90;16.20;99924.00;;;;4966877;28;93010;-69
2023/07/03 04:47:52;;;;;;;8.60;4.53;;;16.10;99.90;16.30;99928.00;;;;4966017;28;94066;-69
2023/07/03 04:50:20;;;;;;;8.27;5.90;;;16.10;99.90;16.30;99926.00;;;;4963617;28;93079;-68
2023/07/03 04:52:49;;;;;;;6.97;3.90;;;16.20;99.90;16.40;99923.00;;;;4965959;28;93038;-69
2023/07/03 04:55:17;;;;;;;6.32;3.78;;;16.20;99.90;16.40;99929.00;;;;4960258;28;93139;-68
2023/07/03 04:57:44;;;;;;;6.72;4.40;;;16.30;99.90;16.40;99936.00;;;;4966343;28;93565;-68
2023/07/03 05:00:15;;;;;;;8.75;4.07;;;16.30;99.90;16.50;99931.00;;;;4964376;28;92189;-69
2023/07/03 05:02:47;;;;;;;6.45;3.25;;;16.40;99.90;16.60;99932.00;;;;4949165;28;93202;-69
2023/07/03 05:05:15;;;;;;;5.93;4.30;;;16.40;99.90;16.70;99931.00;;;;4961328;28;103703;-68
2023/07/03 05:07:42;;;;;;;11.70;5.70;;;16.50;99.90;16.80;99928.00;;;;4949356;28;109320;-69
2023/07/03 05:10:11;;;;;;;10.60;4.22;;;16.60;99.90;16.90;99935.00;;;;4941658;28;93963;-69
2023/07/03 05:12:37;;;;;;;4.28;3.40;;;16.70;99.90;17.10;99936.00;;;;4946910;28;94220;-69
2023/07/03 05:15:08;;;;;;;9.00;4.50;;;16.90;99.90;17.20;99931.00;;;;4946590;28;96129;-69
2023/07/03 05:17:38;;;;;;;5.78;3.28;;;17.00;99.90;17.40;99934.00;;;;4950784;28;92967;-69
2023/07/03 05:20:12;;;;;;;8.77;4.15;;;17.20;99.90;17.60;99939.00;;;;4947701;28;92985;-68
2023/07/03 05:22:43;;;;;;;5.65;3.33;;;17.40;99.90;17.80;99938.00;;;;4947979;28;94213;-69
2023/07/03 05:25:11;;;;;;;5.13;3.92;;;17.50;99.90;18.00;99940.00;;;;4942238;28;109050;-69
2023/07/03 05:27:37;;;;;;;12.15;4.45;;;17.70;99.90;18.20;99941.00;;;;4946535;28;93466;-69
2023/07/03 05:30:06;;;;;;;9.25;3.55;;;18.00;99.90;18.40;99938.00;;;;4950676;28;93058;-69
2023/07/03 05:32:32;;;;;;;6.15;3.88;;;18.10;99.90;18.60;99935.00;;;;4948715;28;93831;-69
2023/07/03 05:34:58;;;;;;;4.28;3.28;;;18.30;99.90;18.90;99941.00;;;;4951054;28;115316;-69
2023/07/03 05:37:24;;;;;;;12.18;5.57;;;18.60;99.90;19.10;99944.00;;;;4954421;28;92850;-69
2023/07/03 05:39:50;;;;;;;8.30;4.07;;;18.80;99.60;19.20;99940.00;;;;4937320;28;92814;-69
2023/07/03 05:42:17;;;;;;;11.50;4.10;;;19.00;98.60;19.30;99944.00;;;;4952863;28;108200;-69
2023/07/03 05:44:44;;;;;;;7.68;4.22;;;19.10;97.60;19.20;99939.00;;;;4947881;28;114841;-68
2023/07/03 05:47:11;;;;;;;6.75;4.00;;;19.10;97.00;19.20;99942.00;;;;4951127;28;93827;-68
2023/07/03 05:49:36;;;;;;;6.57;4.53;;;19.10;97.00;19.10;99948.00;;;;4938417;28;92398;-68
2023/07/03 05:52:03;;;;;;;9.88;3.85;;;19.00;96.80;19.20;99954.00;;;;4956152;28;93299;-68
2023/07/03 05:54:28;;;;;;;8.23;3.88;;;19.10;96.60;19.30;99956.00;;;;4948279;28;94047;-69
2023/07/03 05:56:59;;;;;;;9.07;4.47;;;19.10;96.20;19.50;99954.00;;;;4953582;28;121539;-68
2023/07/03 05:59:26;;;;;;;10.20;4.10;;;19.30;95.80;19.60;99955.00;;;;4948600;28;95167;-69
2023/07/03 06:01:56;;;;;;;9.65;3.88;;;19.40;95.50;19.70;99960.00;;;;4949613;28;94878;-68
2023/07/03 06:04:22;;;;;;;8.43;4.60;;;19.50;94.90;19.70;99951.00;;;;4949277;28;94123;-67
2023/07/03 06:06:51;;;;;;;8.07;4.25;;;19.50;94.40;19.80;99964.00;;;;4962036;28;93691;-69
2023/07/03 06:09:17;;;;;;;6.80;3.85;;;19.60;94.40;20.00;99971.00;;;;4973611;28;93664;-70
2023/07/03 06:11:42;;;;;;;10.90;4.85;;;19.70;94.30;20.20;99968.00;;;;4971730;28;107812;-69
2023/07/03 06:14:17;;;;;;;9.85;4.47;;;19.90;93.60;20.30;99960.00;;;;4953407;28;92430;-68
2023/07/03 06:16:47;;;;;;;13.68;4.90;;;20.00;92.80;20.30;99972.00;;;;4972697;28;93447;-68
2023/07/03 06:19:15;;;;;;;6.80;4.22;;;20.10;92.20;20.20;99974.00;;;;4977103;28;102068;-69
2023/07/03 06:21:41;;;;;;;6.57;3.75;;;20.30;92.10;20.20;99968.00;;;;4956720;28;93906;-68
2023/07/03 06:24:09;;;;;;;5.40;3.75;;;20.10;92.00;20.30;99973.00;;;;4968328;28;112488;-68
2023/07/03 06:26:38;;;;;;;5.13;3.15;;;20.10;92.00;20.50;99971.00;;;;4970424;28;93070;-69
2023/07/03 06:29:05;;;;;;;4.55;3.58;;;20.30;91.90;20.70;99969.00;;;;4969976;28;92873;-68
2023/07/03 06:31:31;;;;;;;8.13;3.80;;;20.40;91.40;20.90;99971.00;;;;4973512;28;100939;-68
2023/07/03 06:33:57;;;;;;;9.48;3.33;;;20.60;90.20;20.80;99974.00;;;;4971355;28;108829;-68
2023/07/03 06:36:23;;;;;;;4.45;3.50;;;20.60;90.20;20.80;99983.00;;;;4968246;28;122075;-68
2023/07/03 06:38:53;;;;;;;6.55;3.90;;;20.60;89.60;20.70;99987.00;;;;4973197;28;92193;-69
2023/07/03 06:41:27;;;;;;;8.00;3.88;;;20.60;89.60;20.50;99985.00;;;;4971426;28;96288;-69
2023/07/03 06:43:55;;;;;;;6.47;3.80;;;20.50;89.60;20.40;99997.00;;;;4973474;28;93669;-68
2023/07/03 06:46:20;;;;;;;7.15;3.88;;;20.30;89.90;20.40;99983.00;;;;4969283;28;96932;-68
2023/07/03 06:48:46;;;;;;;7.85;4.15;;;20.30;89.80;20.40;99989.00;;;;4971717;28;108583;-68
2023/07/03 06:51:13;;;;;;;5.32;3.90;;;20.20;89.00;20.40;99990.00;;;;4972493;28;109212;-69
2023/07/03 06:53:40;;;;;;;5.22;3.65;;;20.30;89.00;20.50;99987.00;;;;4971313;28;93565;-68
2023/07/03 06:56:07;;;;;;;10.18;4.53;;;20.30;89.20;20.70;99985.00;;;;4963137;28;94064;-69
2023/07/03 06:58:34;;;;;;;14.25;4.82;;;20.50;89.30;20.90;99988.00;;;;4968718;28;93139;-69
2023/07/03 07:01:12;;;;;;;8.23;3.95;;;20.60;88.10;21.00;99991.00;;;;4972501;28;97415;-69
2023/07/03 07:03:38;;;;;;;5.72;4.13;;;20.80;87.80;21.20;99999.00;;;;4971069;28;111806;-69
2023/07/03 07:06:25;;;;;;;7.85;3.42;;;20.90;86.90;21.30;99992.00;;;;4971593;28;93218;-69
2023/07/03 07:08:52;;;;;;;4.85;3.30;;;21.10;86.50;21.50;99991.00;;;;4968514;28;93241;-69
2023/07/03 07:11:27;;;;;;;7.07;4.50;;;21.30;86.00;21.70;99989.00;;;;4968708;28;93783;-69
2023/07/03 07:13:58;;;;;;;8.00;3.67;;;21.50;85.40;21.90;99997.00;;;;4971568;28;92791;-69
2023/07/03 07:16:30;;;;;;;8.18;3.97;;;21.60;83.60;22.00;99990.00;;;;4969134;28;93017;-68
2023/07/03 07:19:01;;;;;;;5.90;2.72;;;21.70;82.00;22.10;99986.00;;;;4968407;28;96421;-69
2023/07/03 07:21:30;;;;;;;7.72;3.90;;;21.90;81.20;22.20;99990.00;;;;4973396;28;92890;-69
2023/07/03 07:24:17;;;;;;;6.50;3.85;;;22.00;80.70;22.40;99985.00;;;;4969680;28;95001;-69
2023/07/03 07:26:44;;;;;;;6.22;3.63;;;22.20;80.70;22.50;99968.00;;;;4956735;28;92932;-69
2023/07/03 07:29:10;;;;;;;3.80;3.30;;;22.30;78.90;22.60;99986.00;;;;4968395;28;92173;-69
2023/07/03 07:31:36;;;;;;;10.00;3.47;;;22.40;77.60;22.80;99978.00;;;;4971894;28;93174;-69
2023/07/03 07:34:07;;;;;;;8.85;3.47;;;22.60;76.60;22.90;99973.00;;;;4969847;28;92899;-69
2023/07/03 07:36:33;;;;;;;9.80;2.83;;;22.70;73.50;22.90;99974.00;;;;4944784;28;100301;-69
2023/07/03 07:39:01;;;;;;;4.20;2.75;;;22.80;71.40;22.80;99989.00;;;;4972366;28;93034;-69
2023/07/03 07:41:28;;;;;;;5.60;3.15;;;22.70;70.70;22.80;99981.00;;;;4970746;28;92866;-69
2023/07/03 07:43:54;;;;;;;7.18;2.75;;;22.70;71.00;22.90;99984.00;;;;4970028;28;94080;-69
2023/07/03 07:46:25;;;;;;;7.28;3.55;;;22.70;68.10;23.00;99986.00;;;;4967820;28;93519;-68
2023/07/03 07:48:51;;;;;;;8.63;2.97;;;22.80;66.10;23.10;100001.00;;;;4969091;28;93038;-70
2023/07/03 07:51:17;;;;;;;4.43;1.75;;;22.90;61.80;23.00;99970.00;;;;4969000;28;107368;-69
2023/07/03 07:53:42;;;;;;;5.00;1.92;;;22.90;58.10;22.90;99989.00;;;;4966209;28;120802;-69
2023/07/03 07:56:10;;;;;;;3.83;1.55;;;22.80;58.40;22.90;99981.00;;;;4967553;28;121234;-69
2023/07/03 07:58:36;;;;;;;5.50;1.83;;;22.80;58.20;23.00;99998.00;;;;4934451;28;93006;-69
2023/07/03 08:01:03;;;;;;;9.68;1.73;;;22.80;57.40;22.90;100000.00;;;;4945291;28;95938;-69
2023/07/03 08:03:29;;;;;;;1.60;1.50;;;22.80;56.40;22.90;99994.00;;;;4968342;28;93666;-68
2023/07/03 08:06:03;;;;;;;2.63;1.52;;;22.70;56.00;22.90;99999.00;;;;4966869;28;109784;-68
2023/07/03 08:08:30;;;;;;;8.13;2.50;;;22.80;55.40;23.00;99993.00;;;;4967686;28;92949;-68
2023/07/03 08:11:00;;;;;;;7.53;1.95;;;22.80;55.30;23.10;100005.00;;;;4967775;28;92806;-68
2023/07/03 08:13:28;;;;;;;5.47;2.00;;;22.90;55.10;23.10;99998.00;;;;4966800;28;101996;-68
2023/07/03 08:15:54;;;;;;;5.20;1.92;;;22.90;55.30;23.20;100016.00;;;;4970674;28;114677;-71
2023/07/03 08:18:20;;;;;;;3.38;2.25;;;23.00;55.60;23.20;100005.00;;;;4970997;28;92252;-68
2023/07/03 08:20:47;;;;;;;5.00;2.92;;;23.00;54.80;23.20;99997.00;;;;4969983;28;92956;-67
2023/07/03 08:23:13;;;;;;;4.22;2.17;;;23.00;54.00;23.20;99999.00;;;;4965232;28;93543;-68
2023/07/03 08:25:41;;;;;;;2.95;1.67;;;23.00;52.90;23.10;100004.00;;;;4966678;28;94008;-69
2023/07/03 08:28:07;;;;;;;4.45;2.35;;;23.00;54.00;23.10;100006.00;;;;4973631;28;92718;-69
2023/07/03 08:30:33;;;;;;;2.75;1.35;;;22.90;52.80;22.90;100015.00;;;;4968645;28;100773;-68
2023/07/03 08:32:59;;;;;;;2.53;1.65;;;22.80;53.10;22.90;100008.00;;;;4968029;28;93665;-69
2023/07/03 08:35:24;;;;;;;10.50;2.30;;;22.70;53.60;22.80;100013.00;;;;4963882;28;94064;-69
2023/07/03 08:37:52;;;;;;;7.07;2.15;;;22.70;54.30;22.80;100015.00;;;;4967930;28;111777;-70
2023/07/03 08:40:21;;;;;;;3.65;2.22;;;22.70;54.40;22.90;100016.00;;;;4965032;28;92904;-69
2023/07/03 08:42:56;;;;;;;3.78;2.25;;;22.70;54.80;22.90;100027.00;;;;4964530;28;93543;-69
2023/07/03 08:45:36;;;;;;;2.90;1.92;;;22.70;54.10;22.90;100016.00;;;;4965526;28;93102;-69
2023/07/03 08:48:08;;;;;;;12.02;3.50;;;22.70;54.40;22.90;100015.00;;;;4968803;28;93015;-69
2023/07/03 08:50:34;;;;;;;4.60;1.70;;;22.70;54.80;22.90;100016.00;;;;4968099;28;94208;-71
2023/07/03 08:53:03;;;;;;;7.25;2.88;;;22.70;55.10;23.00;100014.00;;;;4975950;28;121512;-71
2023/07/03 08:55:37;;;;;;;7.28;2.42;;;22.80;55.00;23.20;100013.00;;;;4973626;28;92952;-73
2023/07/03 08:58:02;;;;;;;6.30;2.30;;;22.90;54.70;23.30;100014.00;;;;4953559;28;92717;-71
2023/07/03 09:00:34;;;;;;;4.85;2.70;;;23.10;53.60;23.30;100007.00;;;;4972444;28;92876;-72
2023/07/03 09:03:14;;;;;;;4.05;2.42;;;23.10;53.40;23.30;100021.00;;;;4958900;28;93133;-73
2023/07/03 09:06:42;;;;;;;4.85;1.98;;;23.10;54.00;23.20;100013.00;;;;4958500;28;109658;-72
2023/07/03 09:09:17;;;;;;;4.82;2.42;;;23.10;54.20;23.20;100020.00;;;;4891776;28;97735;-73
2023/07/03 09:11:52;;;;;;;4.20;2.40;;;23.00;54.50;23.20;100013.00;;;;4886690;28;94489;-72
2023/07/03 09:14:24;;;;;;;6.55;2.22;;;23.00;54.60;23.30;100016.00;;;;4927266;28;111932;-73
2023/07/03 09:16:50;;;;;;;3.22;1.67;;;23.00;54.40;23.40;100017.00;;;;4957470;28;93831;-74
2023/07/03 09:19:22;;;;;;;2.90;2.15;;;23.20;55.10;23.40;100007.00;;;;4968831;28;110003;-73
2023/07/03 09:21:54;;;;;;;4.88;2.60;;;23.20;54.60;23.40;100029.00;;;;4969169;28;92974;-73
2023/07/03 09:24:39;;;;;;;4.15;1.80;;;23.20;54.10;23.40;100033.00;;;;4955625;28;114559;-72
2023/07/03 09:27:15;;;;;;;2.92;1.83;;;23.20;54.30;23.30;100037.00;;;;4957275;28;106087;-73
2023/07/03 09:29:42;;;;;;;4.18;2.38;;;23.10;54.60;23.30;100028.00;;;;4968397;28;93085;-72
2023/07/03 09:32:12;;;;;;;5.90;2.17;;;23.10;54.60;23.30;100034.00;;;;4970723;28;99847;-74
2023/07/03 09:35:18;;;;;;;3.33;2.05;;;23.00;54.30;23.20;100035.00;;;;4956433;28;94895;-74
2023/07/03 09:37:51;;;;;;;6.95;2.38;;;23.00;54.00;23.20;100046.00;;;;4945265;28;92787;-74
2023/07/03 09:40:37;;;;;;;4.70;2.05;;;23.00;54.50;23.30;100062.00;;;;4966431;28;103672;-72
2023/07/03 09:43:03;;;;;;;4.28;1.83;;;23.10;54.60;23.40;100029.00;;;;4972790;28;93943;-73
2023/07/03 09:45:33;;;;;;;3.70;1.80;;;23.10;53.70;23.40;100047.00;;;;4938317;28;103527;-73
2023/07/03 09:48:02;;;;;;;7.03;2.08;;;23.20;53.30;23.50;100040.00;;;;4966355;28;92865;-72
2023/07/03 09:50:35;;;;;;;4.57;2.30;;;23.20;53.60;23.50;100054.00;;;;4956759;28;92960;-74
2023/07/03 09:53:03;;;;;;;2.67;1.35;;;23.30;53.50;23.60;100044.00;;;;4958658;28;93059;-74
2023/07/03 09:55:30;;;;;;;1.75;1.25;;;23.30;53.10;23.70;100042.00;;;;4940940;28;95216;-73
2023/07/03 09:57:56;;;;;;;3.42;1.80;;;23.40;53.10;23.70;100056.00;;;;4952967;28;93942;-73
2023/07/03 10:00:25;;;;;;;3.83;1.85;;;23.40;53.20;23.90;100048.00;;;;4955388;28;105707;-73
2023/07/03 10:02:57;;;;;;;3.63;1.55;;;23.50;52.70;24.00;100058.00;;;;4953234;28;92777;-74
2023/07/03 10:05:34;;;;;;;6.45;1.65;;;23.70;51.80;24.00;100065.00;;;;4966436;28;121680;-73
2023/07/03 10:08:06;;;;;;;4.88;1.40;;;23.70;50.90;24.10;100056.00;;;;4935922;28;120935;-73
2023/07/03 10:10:34;;;;;;;1.67;1.45;;;23.80;50.70;24.10;100057.00;;;;4950400;28;100485;-74
2023/07/03 10:13:35;;;;;;;4.55;1.55;;;23.80;50.00;24.20;100054.00;;;;4953242;28;92713;-72
2023/07/03 10:16:03;;;;;;;4.85;1.27;;;23.90;49.00;24.10;100052.00;;;;4947820;28;113385;-73
2023/07/03 10:18:38;;;;;;;4.30;1.83;;;23.90;48.20;24.10;100056.00;;;;4951080;28;99758;-72
2023/07/03 10:21:10;;;;;;;2.35;0.80;;;23.80;48.20;24.20;100053.00;;;;4932865;28;93087;-72
2023/07/03 10:23:40;;;;;;;2.80;1.88;;;23.90;47.90;24.40;100064.00;;;;4936349;28;92992;-71
2023/07/03 10:26:20;;;;;;;3.55;1.27;;;24.00;48.20;24.70;100069.00;;;;4935997;28;111010;-72
2023/07/03 10:28:56;;;;;;;1.60;1.13;;;24.30;48.60;25.00;100061.00;;;;4930509;28;93874;-72
2023/07/03 10:31:34;;;;;;;2.63;1.50;;;24.50;47.70;25.20;100068.00;;;;4912186;28;93045;-73
2023/07/03 10:34:19;;;;;;;5.60;1.77;;;24.70;46.00;25.20;100070.00;;;;4911129;28;101425;-73
2023/07/03 10:36:49;;;;;;;2.85;1.30;;;24.90;45.30;25.20;100054.00;;;;4929146;28;97370;-73
2023/07/03 10:39:30;;;;;;;1.65;1.08;;;24.80;43.70;25.20;100064.00;;;;4948933;28;93027;-73
2023/07/03 10:42:02;;;;;;;4.53;1.42;;;24.90;44.50;25.40;100028.00;;;;4917488;28;93990;-73
2023/07/03 10:44:36;;;;;;;3.13;1.35;;;25.00;44.70;25.50;100061.00;;;;4914685;28;93189;-73
2023/07/03 10:47:18;;;;;;;1.90;1.27;;;25.10;44.20;25.60;100073.00;;;;4934969;28;93069;-73
2023/07/03 10:49:45;;;;;;;1.80;1.00;;;25.20;44.00;25.60;100067.00;;;;4931455;28;94434;-75
2023/07/03 10:52:31;;;;;;;7.28;1.17;;;25.20;43.90;25.70;100073.00;;;;4937947;28;93210;-73
2023/07/03 10:55:44;;;;;;;4.50;1.27;;;25.30;44.00;25.80;100057.00;;;;4949518;28;93763;-76
2023/07/03 10:58:33;;;;;;;2.45;1.13;;;25.40;43.90;26.20;100080.00;;;;4949329;28;93458;-75